createdAt,value
2022-09-21T00:00:17.243Z,69.61
2022-09-21T00:01:17.150Z,69.45
2022-09-21T00:02:17.152Z,69.45
2022-09-21T00:03:17.097Z,70.90
2022-09-21T00:04:17.208Z,73.15
2022-09-21T00:05:17.102Z,72.03
2022-09-21T00:06:17.042Z,69.45
2022-09-21T00:07:17.089Z,66.71
2022-09-21T00:08:17.044Z,70.25
2022-09-21T00:09:17.016Z,68.32
2022-09-21T00:10:16.976Z,69.61
2022-09-21T00:11:16.960Z,68.48
2022-09-21T00:12:16.968Z,69.29
2022-09-21T00:13:16.922Z,70.09
2022-09-21T00:14:17.920Z,70.09
2022-09-21T00:15:16.945Z,71.38
2022-09-21T00:16:16.933Z,69.29
2022-09-21T00:17:16.849Z,69.61
2022-09-21T00:18:16.823Z,70.09
2022-09-21T00:19:16.860Z,67.68
2022-09-21T00:20:16.873Z,70.58
2022-09-21T00:21:16.787Z,71.38
2022-09-21T00:22:16.758Z,70.74
2022-09-21T00:23:16.737Z,72.19
2022-09-21T00:24:16.762Z,69.77
2022-09-21T00:25:16.709Z,71.70
2022-09-21T00:26:16.720Z,72.35
2022-09-21T00:27:16.665Z,69.77
2022-09-21T00:28:16.671Z,70.42
2022-09-21T00:29:16.703Z,73.96
2022-09-21T00:30:16.684Z,71.06
2022-09-21T00:31:16.625Z,70.42
2022-09-21T00:32:16.600Z,67.84
2022-09-21T00:33:16.580Z,73.96
2022-09-21T00:34:16.613Z,71.87
2022-09-21T00:35:16.547Z,71.38
2022-09-21T00:36:16.520Z,70.90
2022-09-21T00:37:16.577Z,68.32
2022-09-21T00:38:16.488Z,69.61
2022-09-21T00:39:16.499Z,71.70
2022-09-21T00:40:16.567Z,70.74
2022-09-21T00:41:16.430Z,67.35
2022-09-21T00:42:16.415Z,71.87
2022-09-21T00:43:16.403Z,72.03
2022-09-21T00:44:16.431Z,70.90
2022-09-21T00:45:16.376Z,72.51
2022-09-21T00:46:16.342Z,66.87
2022-09-21T00:47:16.338Z,69.29
2022-09-21T00:48:16.356Z,71.22
2022-09-21T00:49:16.326Z,70.74
2022-09-21T00:50:16.316Z,72.51
2022-09-21T00:51:16.276Z,70.74
2022-09-21T00:52:16.255Z,69.77
2022-09-21T00:53:16.228Z,71.38
2022-09-21T00:54:16.251Z,69.61
2022-09-21T00:55:16.198Z,68.48
2022-09-21T00:56:17.213Z,70.90
2022-09-21T00:57:16.167Z,71.87
2022-09-21T00:58:16.162Z,70.42
2022-09-21T00:59:17.432Z,71.70
2022-09-21T01:00:16.195Z,68.80
2022-09-21T01:01:16.181Z,71.87
2022-09-21T01:02:16.094Z,73.64
2022-09-21T01:03:16.064Z,71.06
2022-09-21T01:04:16.066Z,73.96
2022-09-21T01:05:16.018Z,70.58
2022-09-21T01:06:16.008Z,69.93
2022-09-21T01:07:15.977Z,70.42
2022-09-21T01:08:15.980Z,70.90
2022-09-21T01:09:15.985Z,69.45
2022-09-21T01:10:16.038Z,72.03
2022-09-21T01:11:15.913Z,70.09
2022-09-21T01:12:15.903Z,72.51
2022-09-21T01:13:15.886Z,72.03
2022-09-21T01:14:15.889Z,70.58
2022-09-21T01:15:15.864Z,71.06
2022-09-21T01:16:15.861Z,69.77
2022-09-21T01:17:15.812Z,71.22
2022-09-21T01:18:15.792Z,71.87
2022-09-21T01:19:15.807Z,71.22
2022-09-21T01:20:15.803Z,67.35
2022-09-21T01:21:15.778Z,66.55
2022-09-21T01:22:15.719Z,67.84
2022-09-21T01:23:15.718Z,72.67
2022-09-21T01:24:15.729Z,69.93
2022-09-21T01:25:15.684Z,69.29
2022-09-21T01:26:15.666Z,71.70
2022-09-21T01:27:15.661Z,69.77
2022-09-21T01:28:15.628Z,69.93
2022-09-21T01:29:15.637Z,72.51
2022-09-21T01:30:15.634Z,71.22
2022-09-21T01:31:15.606Z,74.44
2022-09-21T01:32:15.751Z,71.22
2022-09-21T01:33:15.536Z,72.35
2022-09-21T01:34:15.547Z,72.51
2022-09-21T01:35:15.509Z,69.29
2022-09-21T01:36:15.492Z,69.29
2022-09-21T01:37:15.479Z,71.38
2022-09-21T01:38:15.459Z,71.38
2022-09-21T01:39:15.485Z,71.06
2022-09-21T01:40:15.517Z,72.19
2022-09-21T01:41:15.404Z,71.70
2022-09-21T01:42:15.392Z,71.22
2022-09-21T01:43:15.501Z,72.19
2022-09-21T01:44:15.373Z,70.90
2022-09-21T01:45:15.374Z,70.09
2022-09-21T01:46:15.316Z,70.42
2022-09-21T01:47:15.315Z,70.25
2022-09-21T01:48:15.284Z,70.58
2022-09-21T01:49:15.291Z,66.23
2022-09-21T01:50:15.344Z,69.61
2022-09-21T01:51:15.238Z,71.54
2022-09-21T01:52:15.199Z,72.51
2022-09-21T01:53:15.189Z,72.67
2022-09-21T01:54:15.215Z,71.87
2022-09-21T01:55:15.174Z,70.74
2022-09-21T01:56:15.128Z,70.90
2022-09-21T01:57:15.134Z,72.51
2022-09-21T01:58:15.096Z,71.70
2022-09-21T01:59:15.127Z,70.90
2022-09-21T02:00:15.074Z,71.38
2022-09-21T02:01:15.111Z,70.42
2022-09-21T02:02:15.089Z,73.48
2022-09-21T02:03:15.021Z,73.15
2022-09-21T02:04:14.997Z,72.83
2022-09-21T02:05:15.053Z,73.32
2022-09-21T02:06:14.960Z,74.28
2022-09-21T02:07:14.948Z,70.09
2022-09-21T02:08:14.920Z,72.51
2022-09-21T02:09:14.909Z,73.48
2022-09-21T02:10:15.022Z,73.32
2022-09-21T02:11:14.886Z,68.80
2022-09-21T02:12:18.873Z,72.99
2022-09-21T02:13:15.831Z,70.42
2022-09-21T02:14:14.819Z,72.51
2022-09-21T02:15:14.844Z,70.58
2022-09-21T02:16:14.840Z,73.15
2022-09-21T02:17:14.774Z,70.74
2022-09-21T02:18:14.768Z,70.74
2022-09-21T02:19:14.739Z,71.54
2022-09-21T02:20:14.860Z,72.51
2022-09-21T02:21:14.701Z,72.35
2022-09-21T02:22:14.695Z,71.38
2022-09-21T02:23:14.670Z,71.87
2022-09-21T02:24:14.688Z,71.06
2022-09-21T02:25:14.669Z,73.48
2022-09-21T02:26:14.637Z,72.83
2022-09-21T02:27:14.648Z,71.87
2022-09-21T02:28:14.594Z,72.03
2022-09-21T02:29:14.596Z,71.70
2022-09-21T02:30:14.594Z,73.64
2022-09-21T02:31:14.560Z,72.51
2022-09-21T02:32:14.516Z,74.12
2022-09-21T02:33:14.511Z,72.03
2022-09-21T02:34:14.516Z,72.83
2022-09-21T02:35:14.481Z,72.51
2022-09-21T02:36:14.454Z,71.38
2022-09-21T02:37:14.438Z,72.83
2022-09-21T02:38:14.453Z,74.12
2022-09-21T02:39:14.428Z,72.19
2022-09-21T02:40:14.430Z,71.87
2022-09-21T02:41:14.378Z,73.48
2022-09-21T02:42:14.354Z,72.99
2022-09-21T02:43:14.329Z,73.32
2022-09-21T02:44:14.338Z,71.54
2022-09-21T02:45:14.311Z,70.74
2022-09-21T02:46:14.323Z,71.06
2022-09-21T02:47:14.255Z,73.64
2022-09-21T02:48:14.261Z,72.99
2022-09-21T02:49:14.287Z,70.74
2022-09-21T02:50:14.237Z,73.32
2022-09-21T02:51:14.194Z,72.83
2022-09-21T02:52:14.178Z,72.35
2022-09-21T02:53:14.155Z,71.06
2022-09-21T02:54:14.184Z,71.87
2022-09-21T02:55:14.138Z,73.80
2022-09-21T02:56:14.108Z,73.32
2022-09-21T02:57:14.093Z,72.19
2022-09-21T02:58:14.067Z,74.28
2022-09-21T02:59:14.087Z,72.03
2022-09-21T03:00:14.043Z,73.64
2022-09-21T03:01:14.013Z,74.77
2022-09-21T03:02:14.046Z,71.87
2022-09-21T03:03:13.977Z,73.15
2022-09-21T03:04:14.000Z,74.93
2022-09-21T03:05:13.960Z,73.64
2022-09-21T03:06:13.935Z,73.32
2022-09-21T03:07:13.928Z,70.42
2022-09-21T03:08:13.903Z,71.54
2022-09-21T03:09:13.901Z,74.12
2022-09-21T03:10:13.872Z,73.15
2022-09-21T03:11:13.922Z,73.48
2022-09-21T03:12:13.871Z,72.67
2022-09-21T03:13:13.818Z,71.38
2022-09-21T03:14:13.823Z,72.19
2022-09-21T03:15:13.780Z,72.99
2022-09-21T03:16:13.791Z,73.64
2022-09-21T03:17:13.742Z,75.41
2022-09-21T03:18:13.727Z,73.32
2022-09-21T03:19:13.742Z,74.12
2022-09-21T03:20:13.714Z,73.96
2022-09-21T03:21:13.691Z,75.09
2022-09-21T03:22:13.690Z,73.15
2022-09-21T03:23:13.633Z,73.15
2022-09-21T03:24:13.633Z,72.19
2022-09-21T03:25:13.595Z,73.80
2022-09-21T03:26:13.590Z,72.51
2022-09-21T03:27:13.558Z,71.22
2022-09-21T03:28:13.539Z,73.64
2022-09-21T03:29:13.569Z,73.32
2022-09-21T03:30:13.530Z,72.99
2022-09-21T03:31:13.510Z,72.19
2022-09-21T03:32:13.476Z,71.54
2022-09-21T03:33:13.471Z,74.60
2022-09-21T03:34:14.475Z,73.80
2022-09-21T03:35:13.421Z,73.64
2022-09-21T03:36:13.427Z,72.51
2022-09-21T03:37:13.379Z,72.51
2022-09-21T03:38:14.384Z,74.93
2022-09-21T03:39:13.403Z,73.80
2022-09-21T03:40:13.481Z,74.12
2022-09-21T03:41:14.323Z,73.64
2022-09-21T03:42:13.310Z,74.77
2022-09-21T03:43:13.306Z,72.67
2022-09-21T03:44:13.334Z,74.28
2022-09-21T03:45:13.241Z,73.96
2022-09-21T03:46:13.262Z,73.15
2022-09-21T03:47:13.231Z,73.48
2022-09-21T03:48:13.204Z,74.77
2022-09-21T03:49:13.212Z,75.41
2022-09-21T03:50:13.227Z,74.44
2022-09-21T03:51:13.154Z,72.67
2022-09-21T03:52:13.207Z,73.48
2022-09-21T03:53:13.130Z,73.32
2022-09-21T03:54:13.123Z,73.48
2022-09-21T03:55:13.136Z,74.44
2022-09-21T03:56:13.056Z,73.48
2022-09-21T03:57:13.042Z,73.80
2022-09-21T03:58:13.046Z,75.25
2022-09-21T03:59:14.374Z,74.12
2022-09-21T04:00:14.042Z,73.48
2022-09-21T04:01:13.004Z,74.93
2022-09-21T04:02:12.952Z,74.44
2022-09-21T04:03:12.953Z,73.64
2022-09-21T04:04:12.952Z,73.64
2022-09-21T04:05:12.904Z,75.09
2022-09-21T04:06:12.926Z,74.93
2022-09-21T04:07:12.863Z,75.09
2022-09-21T04:08:12.860Z,74.12
2022-09-21T04:09:12.875Z,75.89
2022-09-21T04:10:12.939Z,73.64
2022-09-21T04:11:12.801Z,72.51
2022-09-21T04:12:12.789Z,73.32
2022-09-21T04:13:12.763Z,79.76
2022-09-21T04:14:12.778Z,73.96
2022-09-21T04:15:12.786Z,72.51
2022-09-21T04:16:12.760Z,73.64
2022-09-21T04:17:12.696Z,75.09
2022-09-21T04:18:12.676Z,72.51
2022-09-21T04:19:12.704Z,72.19
2022-09-21T04:20:12.662Z,74.28
2022-09-21T04:21:12.655Z,74.93
2022-09-21T04:22:12.609Z,72.67
2022-09-21T04:23:12.603Z,73.32
2022-09-21T04:24:12.621Z,73.96
2022-09-21T04:25:12.567Z,73.64
2022-09-21T04:26:12.572Z,72.83
2022-09-21T04:27:12.528Z,72.67
2022-09-21T04:28:12.504Z,73.64
2022-09-21T04:29:12.507Z,73.15
2022-09-21T04:30:12.523Z,72.51
2022-09-21T04:31:12.482Z,74.12
2022-09-21T04:32:12.455Z,74.28
2022-09-21T04:33:12.420Z,74.60
2022-09-21T04:34:12.440Z,75.25
2022-09-21T04:35:12.383Z,75.09
2022-09-21T04:36:12.356Z,74.93
2022-09-21T04:37:12.343Z,73.15
2022-09-21T04:38:12.340Z,73.64
2022-09-21T04:39:12.356Z,73.80
2022-09-21T04:40:12.385Z,75.41
2022-09-21T04:41:12.277Z,74.77
2022-09-21T04:42:12.271Z,76.38
2022-09-21T04:43:12.257Z,75.09
2022-09-21T04:44:12.265Z,75.09
2022-09-21T04:45:12.245Z,74.60
2022-09-21T04:46:12.259Z,76.70
2022-09-21T04:47:12.184Z,73.64
2022-09-21T04:48:12.163Z,74.44
2022-09-21T04:49:12.192Z,73.48
2022-09-21T04:50:12.176Z,74.44
2022-09-21T04:51:12.107Z,74.28
2022-09-21T04:52:14.761Z,74.77
2022-09-21T04:53:13.081Z,72.67
2022-09-21T04:54:12.052Z,74.93
2022-09-21T04:55:12.079Z,74.77
2022-09-21T04:56:12.019Z,74.60
2022-09-21T04:57:11.999Z,74.77
2022-09-21T04:58:11.983Z,74.12
2022-09-21T04:59:11.978Z,74.60
2022-09-21T05:00:11.994Z,74.44
2022-09-21T05:01:12.044Z,78.15
2022-09-21T05:02:11.920Z,74.28
2022-09-21T05:03:11.992Z,73.32
2022-09-21T05:04:11.885Z,74.44
2022-09-21T05:05:11.896Z,73.64
2022-09-21T05:06:11.844Z,73.96
2022-09-21T05:07:11.846Z,73.96
2022-09-21T05:08:11.822Z,74.77
2022-09-21T05:09:11.798Z,75.25
2022-09-21T05:10:11.805Z,75.57
2022-09-21T05:11:11.767Z,74.93
2022-09-21T05:12:11.766Z,75.89
2022-09-21T05:13:11.726Z,76.86
2022-09-21T05:14:11.725Z,73.48
2022-09-21T05:15:11.739Z,74.28
2022-09-21T05:16:11.700Z,75.09
2022-09-21T05:17:11.654Z,73.96
2022-09-21T05:18:11.658Z,73.48
2022-09-21T05:19:11.618Z,71.38
2022-09-21T05:20:11.659Z,73.15
2022-09-21T05:21:11.599Z,71.54
2022-09-21T05:22:11.576Z,73.64
2022-09-21T05:23:16.143Z,74.12
2022-09-21T05:24:13.570Z,74.12
2022-09-21T05:25:11.551Z,73.15
2022-09-21T05:26:11.509Z,73.32
2022-09-21T05:27:11.484Z,73.32
2022-09-21T05:28:11.530Z,73.80
2022-09-21T05:29:11.447Z,72.35
2022-09-21T05:30:11.481Z,73.32
2022-09-21T05:31:17.659Z,72.51
2022-09-21T05:32:13.395Z,72.51
2022-09-21T05:33:11.380Z,73.96
2022-09-21T05:34:11.430Z,74.12
2022-09-21T05:35:11.410Z,74.93
2022-09-21T05:36:11.348Z,72.83
2022-09-21T05:37:11.326Z,72.99
2022-09-21T05:38:11.310Z,73.32
2022-09-21T05:39:11.295Z,73.64
2022-09-21T05:40:11.356Z,72.35
2022-09-21T05:41:11.250Z,72.19
2022-09-21T05:42:11.226Z,72.67
2022-09-21T05:43:11.263Z,73.64
2022-09-21T05:44:11.194Z,72.51
2022-09-21T05:45:11.496Z,73.64
2022-09-21T05:46:11.240Z,73.15
2022-09-21T05:47:11.146Z,72.67
2022-09-21T05:48:11.119Z,73.64
2022-09-21T05:49:11.104Z,72.99
2022-09-21T05:50:11.207Z,73.32
2022-09-21T05:51:11.078Z,72.51
2022-09-21T05:52:11.049Z,73.80
2022-09-21T05:53:11.031Z,73.64
2022-09-21T05:54:11.022Z,71.06
2022-09-21T05:55:11.043Z,71.22
2022-09-21T05:56:10.999Z,71.22
2022-09-21T05:57:10.968Z,72.67
2022-09-21T05:58:10.961Z,71.06
2022-09-21T05:59:10.943Z,70.74
2022-09-21T06:00:10.941Z,71.38
2022-09-21T06:01:10.924Z,72.03
2022-09-21T06:02:10.904Z,72.35
2022-09-21T06:03:15.539Z,70.09
2022-09-21T06:04:12.844Z,69.77
2022-09-21T06:05:10.876Z,71.22
2022-09-21T06:06:10.828Z,71.54
2022-09-21T06:07:10.812Z,70.42
2022-09-21T06:08:10.797Z,71.38
2022-09-21T06:09:10.804Z,71.06
2022-09-21T06:10:10.803Z,70.25
2022-09-21T06:11:10.733Z,71.22
2022-09-21T06:12:10.711Z,71.06
2022-09-21T06:13:10.710Z,71.54
2022-09-21T06:14:10.676Z,69.61
2022-09-21T06:15:10.692Z,71.38
2022-09-21T06:16:10.637Z,71.06
2022-09-21T06:17:10.626Z,70.42
2022-09-21T06:18:14.272Z,68.80
2022-09-21T06:19:12.590Z,70.42
2022-09-21T06:20:11.769Z,69.29
2022-09-21T06:21:10.558Z,71.87
2022-09-21T06:22:10.561Z,69.45
2022-09-21T06:23:10.537Z,70.42
2022-09-21T06:24:10.505Z,70.74
2022-09-21T06:25:10.550Z,72.19
2022-09-21T06:26:10.480Z,71.38
2022-09-21T06:27:10.457Z,71.06
2022-09-21T06:28:10.488Z,70.42
2022-09-21T06:29:10.423Z,69.45
2022-09-21T06:30:10.434Z,70.42
2022-09-21T06:31:10.521Z,69.13
2022-09-21T06:32:10.377Z,69.13
2022-09-21T06:33:10.352Z,69.77
2022-09-21T06:34:10.338Z,68.32
2022-09-21T06:35:10.351Z,70.74
2022-09-21T06:36:10.303Z,68.80
2022-09-21T06:37:10.307Z,70.42
2022-09-21T06:38:10.274Z,69.61
2022-09-21T06:39:10.269Z,68.32
2022-09-21T06:40:10.334Z,69.45
2022-09-21T06:41:10.238Z,71.54
2022-09-21T06:42:10.218Z,69.45
2022-09-21T06:43:11.234Z,69.29
2022-09-21T06:44:10.183Z,70.25
2022-09-21T06:45:10.214Z,69.93
2022-09-21T06:46:10.194Z,68.32
2022-09-21T06:47:10.144Z,70.09
2022-09-21T06:48:10.130Z,69.45
2022-09-21T06:49:10.102Z,69.13
2022-09-21T06:50:10.134Z,68.48
2022-09-21T06:51:10.075Z,68.64
2022-09-21T06:52:10.060Z,67.51
2022-09-21T06:53:10.057Z,68.32
2022-09-21T06:54:10.026Z,69.61
2022-09-21T06:55:10.043Z,68.16
2022-09-21T06:56:10.004Z,68.80
2022-09-21T06:57:09.995Z,70.42
2022-09-21T06:58:10.807Z,69.77
2022-09-21T06:59:09.956Z,68.32
2022-09-21T07:00:09.986Z,66.87
2022-09-21T07:01:10.090Z,67.84
2022-09-21T07:02:10.017Z,68.64
2022-09-21T07:03:09.890Z,68.80
2022-09-21T07:04:09.876Z,68.32
2022-09-21T07:05:09.901Z,68.32
2022-09-21T07:06:09.861Z,68.64
2022-09-21T07:07:10.847Z,68.48
2022-09-21T07:10:05.095Z,70.74
2022-09-21T07:10:15.859Z,69.77
2022-09-21T07:11:11.805Z,69.45
2022-09-21T07:12:09.758Z,69.13
2022-09-21T07:13:09.745Z,68.96
2022-09-21T07:14:09.741Z,68.96
2022-09-21T07:15:09.751Z,69.13
2022-09-21T07:16:09.719Z,69.45
2022-09-21T07:17:15.203Z,69.13
2022-09-21T07:18:10.646Z,70.58
2022-09-21T07:19:11.797Z,69.29
2022-09-21T07:20:10.664Z,69.45
2022-09-21T07:21:09.612Z,68.00
2022-09-21T07:22:09.603Z,69.29
2022-09-21T07:23:09.569Z,68.00
2022-09-21T07:24:12.243Z,67.51
2022-09-21T07:25:10.589Z,67.35
2022-09-21T07:26:09.532Z,68.16
2022-09-21T07:27:09.533Z,68.00
2022-09-21T07:28:09.496Z,66.71
2022-09-21T07:29:09.500Z,67.51
2022-09-21T07:30:09.505Z,67.03
2022-09-21T07:31:09.456Z,67.03
2022-09-21T07:32:09.485Z,66.23
2022-09-21T07:33:09.434Z,67.51
2022-09-21T07:34:09.421Z,67.84
2022-09-21T07:35:09.434Z,67.19
2022-09-21T07:36:09.385Z,66.87
2022-09-21T07:37:09.377Z,68.80
2022-09-21T07:38:09.369Z,69.13
2022-09-21T07:39:09.354Z,66.71
2022-09-21T07:40:09.409Z,67.19
2022-09-21T07:41:09.312Z,68.32
2022-09-21T07:42:09.287Z,68.32
2022-09-21T07:43:09.277Z,69.29
2022-09-21T07:44:09.271Z,67.68
2022-09-21T07:45:09.285Z,67.68
2022-09-21T07:46:09.317Z,67.03
2022-09-21T07:47:09.232Z,67.19
2022-09-21T07:48:09.208Z,66.23
2022-09-21T07:49:09.222Z,67.68
2022-09-21T07:50:09.219Z,66.06
2022-09-21T07:51:09.172Z,67.84
2022-09-21T07:52:11.030Z,68.96
2022-09-21T07:53:10.134Z,68.80
2022-09-21T07:54:09.113Z,68.80
2022-09-21T07:55:09.152Z,66.71
2022-09-21T07:56:09.091Z,67.03
2022-09-21T07:57:09.074Z,68.16
2022-09-21T07:58:09.064Z,68.16
2022-09-21T07:59:09.049Z,66.39
2022-09-21T08:00:09.068Z,67.51
2022-09-21T08:01:09.076Z,67.19
2022-09-21T08:02:09.048Z,67.68
2022-09-21T08:03:09.019Z,68.64
2022-09-21T08:04:09.136Z,69.29
2022-09-21T08:05:10.026Z,67.84
2022-09-21T08:06:08.943Z,67.19
2022-09-21T08:07:08.932Z,69.93
2022-09-21T08:08:08.918Z,67.51
2022-09-21T08:09:08.943Z,67.35
2022-09-21T08:10:08.929Z,68.00
2022-09-21T08:11:08.885Z,68.32
2022-09-21T08:12:08.862Z,66.71
2022-09-21T08:13:08.843Z,67.19
2022-09-21T08:14:08.828Z,67.84
2022-09-21T08:15:20.408Z,68.48
2022-09-21T08:16:10.860Z,68.00
2022-09-21T08:17:08.796Z,67.19
2022-09-21T08:18:08.770Z,66.06
2022-09-21T08:19:08.800Z,68.96
2022-09-21T08:20:08.768Z,67.68
2022-09-21T08:21:08.735Z,68.32
2022-09-21T08:22:08.731Z,67.35
2022-09-21T08:23:08.702Z,67.84
2022-09-21T08:24:08.693Z,67.84
2022-09-21T08:25:08.708Z,68.64
2022-09-21T08:26:08.654Z,68.00
2022-09-21T08:27:08.651Z,67.19
2022-09-21T08:28:10.058Z,66.87
2022-09-21T08:29:09.612Z,66.55
2022-09-21T08:30:08.601Z,67.03
2022-09-21T08:31:08.696Z,68.48
2022-09-21T08:32:08.638Z,68.00
2022-09-21T08:33:08.563Z,69.45
2022-09-21T08:34:08.597Z,66.55
2022-09-21T08:35:08.541Z,66.71
2022-09-21T08:36:08.554Z,68.64
2022-09-21T08:37:08.515Z,66.87
2022-09-21T08:38:08.499Z,67.35
2022-09-21T08:39:08.490Z,67.51
2022-09-21T08:40:08.595Z,68.00
2022-09-21T08:41:08.521Z,66.71
2022-09-21T08:42:08.432Z,68.16
2022-09-21T08:43:08.419Z,67.35
2022-09-21T08:44:08.460Z,67.84
2022-09-21T08:45:08.394Z,68.32
2022-09-21T08:46:08.412Z,68.32
2022-09-21T08:47:08.356Z,67.03
2022-09-21T08:48:08.358Z,67.51
2022-09-21T08:49:08.351Z,64.78
2022-09-21T08:50:08.364Z,66.71
2022-09-21T08:51:08.333Z,70.25
2022-09-21T08:52:08.296Z,67.51
2022-09-21T08:53:08.278Z,67.19
2022-09-21T08:54:08.275Z,66.55
2022-09-21T08:55:08.252Z,66.23
2022-09-21T08:56:08.290Z,65.74
2022-09-21T08:57:08.233Z,66.87
2022-09-21T08:58:08.213Z,66.23
2022-09-21T08:59:08.233Z,66.87
2022-09-21T09:00:08.176Z,67.35
2022-09-21T09:01:08.236Z,65.74
2022-09-21T09:02:08.298Z,66.23
2022-09-21T09:03:08.137Z,65.42
2022-09-21T09:04:08.204Z,67.68
2022-09-21T09:05:08.109Z,67.68
2022-09-21T09:06:08.127Z,66.23
2022-09-21T09:07:08.081Z,68.64
2022-09-21T09:08:08.073Z,67.19
2022-09-21T09:09:08.145Z,68.16
2022-09-21T09:10:08.064Z,67.03
2022-09-21T09:11:08.045Z,66.71
2022-09-21T09:12:10.991Z,68.16
2022-09-21T09:13:08.993Z,66.06
2022-09-21T09:14:07.972Z,66.71
2022-09-21T09:15:07.970Z,66.39
2022-09-21T09:16:08.008Z,67.35
2022-09-21T09:17:07.934Z,67.51
2022-09-21T09:18:07.934Z,67.84
2022-09-21T09:19:07.906Z,67.03
2022-09-21T09:20:07.896Z,70.09
2022-09-21T09:21:07.910Z,67.84
2022-09-21T09:22:07.866Z,68.16
2022-09-21T09:23:07.853Z,67.35
2022-09-21T09:24:07.890Z,67.19
2022-09-21T09:25:07.834Z,68.16
2022-09-21T09:26:07.838Z,66.39
2022-09-21T09:27:07.855Z,66.87
2022-09-21T09:28:07.775Z,67.19
2022-09-21T09:29:07.759Z,66.06
2022-09-21T09:30:07.770Z,67.51
2022-09-21T09:31:07.820Z,67.03
2022-09-21T09:32:07.788Z,65.90
2022-09-21T09:33:07.711Z,68.48
2022-09-21T09:34:07.702Z,66.87
2022-09-21T09:35:07.691Z,67.68
2022-09-21T09:36:07.698Z,67.35
2022-09-21T09:37:08.652Z,67.03
2022-09-21T09:38:07.672Z,67.84
2022-09-21T09:39:07.669Z,66.06
2022-09-21T09:40:07.668Z,68.64
2022-09-21T09:41:07.635Z,67.84
2022-09-21T09:42:07.588Z,65.42
2022-09-21T09:43:07.576Z,69.29
2022-09-21T09:44:07.595Z,66.55
2022-09-21T09:45:07.554Z,69.77
2022-09-21T09:46:11.205Z,68.32
2022-09-21T09:47:08.601Z,68.96
2022-09-21T09:48:07.541Z,68.64
2022-09-21T09:49:07.508Z,69.45
2022-09-21T09:50:07.509Z,68.48
2022-09-21T09:51:07.501Z,67.19
2022-09-21T09:52:07.469Z,67.35
2022-09-21T09:53:07.436Z,68.16
2022-09-21T09:54:10.226Z,67.84
2022-09-21T09:55:08.411Z,68.16
2022-09-21T09:56:07.432Z,70.09
2022-09-21T09:57:08.384Z,70.09
2022-09-21T09:58:07.370Z,69.77
2022-09-21T09:59:07.360Z,67.19
2022-09-21T10:00:07.350Z,67.35
2022-09-21T10:01:07.359Z,69.45
2022-09-21T10:02:07.429Z,68.16
2022-09-21T10:03:07.303Z,69.29
2022-09-21T10:04:07.543Z,65.26
2022-09-21T10:05:07.291Z,68.00
2022-09-21T10:06:07.314Z,68.80
2022-09-21T10:07:07.269Z,66.71
2022-09-21T10:08:07.229Z,69.45
2022-09-21T10:09:07.316Z,67.19
2022-09-21T10:10:07.230Z,67.19
2022-09-21T10:11:07.274Z,66.87
2022-09-21T10:12:10.375Z,67.84
2022-09-21T10:13:08.167Z,69.45
2022-09-21T10:14:07.157Z,66.87
2022-09-21T10:15:07.145Z,67.03
2022-09-21T10:16:07.219Z,68.96
2022-09-21T10:17:07.120Z,67.68
2022-09-21T10:18:07.092Z,67.19
2022-09-21T10:19:07.098Z,67.19
2022-09-21T10:20:07.054Z,66.23
2022-09-21T10:21:07.112Z,72.35
2022-09-21T10:22:07.042Z,68.00
2022-09-21T10:23:07.041Z,69.29
2022-09-21T10:24:07.013Z,68.80
2022-09-21T10:25:06.991Z,68.64
2022-09-21T10:26:07.028Z,68.16
2022-09-21T10:27:07.007Z,67.03
2022-09-21T10:28:06.947Z,69.29
2022-09-21T10:29:07.018Z,69.45
2022-09-21T10:30:06.917Z,67.84
2022-09-21T10:31:06.972Z,68.64
2022-09-21T10:32:10.000Z,67.35
2022-09-21T10:33:07.886Z,67.19
2022-09-21T10:34:06.906Z,68.80
2022-09-21T10:35:06.841Z,68.16
2022-09-21T10:36:06.860Z,68.32
2022-09-21T10:37:06.813Z,68.48
2022-09-21T10:38:06.800Z,68.64
2022-09-21T10:39:06.784Z,67.68
2022-09-21T10:40:06.813Z,70.25
2022-09-21T10:41:06.788Z,67.68
2022-09-21T10:42:06.753Z,68.80
2022-09-21T10:43:06.730Z,69.77
2022-09-21T10:44:06.709Z,69.29
2022-09-21T10:45:06.708Z,69.77
2022-09-21T10:46:06.743Z,68.16
2022-09-21T10:47:06.672Z,68.48
2022-09-21T10:48:06.665Z,68.64
2022-09-21T10:49:06.689Z,68.48
2022-09-21T10:50:06.626Z,67.03
2022-09-21T10:51:06.660Z,68.64
2022-09-21T10:52:06.603Z,69.13
2022-09-21T10:53:06.583Z,68.96
2022-09-21T10:54:06.699Z,69.61
2022-09-21T10:55:06.585Z,70.09
2022-09-21T10:56:18.615Z,71.06
2022-09-21T10:57:08.515Z,69.61
2022-09-21T10:58:06.501Z,69.13
2022-09-21T10:59:06.486Z,68.48
2022-09-21T11:00:06.497Z,69.93
2022-09-21T11:01:06.490Z,69.13
2022-09-21T11:02:06.574Z,70.74
2022-09-21T11:03:06.491Z,70.74
2022-09-21T11:04:06.578Z,71.22
2022-09-21T11:05:06.427Z,70.90
2022-09-21T11:06:06.378Z,73.15
2022-09-21T11:07:06.360Z,69.77
2022-09-21T11:08:06.382Z,70.90
2022-09-21T11:09:06.338Z,71.87
2022-09-21T11:10:06.355Z,70.42
2022-09-21T11:11:06.310Z,71.38
2022-09-21T11:12:06.287Z,71.38
2022-09-21T11:13:06.269Z,71.54
2022-09-21T11:14:06.257Z,71.87
2022-09-21T11:15:06.282Z,71.06
2022-09-21T11:16:06.293Z,70.58
2022-09-21T11:17:06.212Z,70.90
2022-09-21T11:18:06.203Z,72.03
2022-09-21T11:19:06.338Z,70.74
2022-09-21T11:20:06.189Z,72.67
2022-09-21T11:21:06.156Z,71.70
2022-09-21T11:22:06.128Z,70.58
2022-09-21T11:23:06.131Z,70.74
2022-09-21T11:24:06.103Z,69.45
2022-09-21T11:25:06.111Z,70.74
2022-09-21T11:26:06.063Z,72.19
2022-09-21T11:27:06.061Z,70.42
2022-09-21T11:28:06.036Z,72.35
2022-09-21T11:29:06.150Z,72.03
2022-09-21T11:30:06.027Z,71.06
2022-09-21T11:31:06.021Z,72.51
2022-09-21T11:32:06.315Z,72.51
2022-09-21T11:33:05.953Z,74.12
2022-09-21T11:34:06.050Z,71.38
2022-09-21T11:35:05.959Z,71.38
2022-09-21T11:36:05.908Z,71.38
2022-09-21T11:37:05.883Z,72.51
2022-09-21T11:38:05.882Z,71.70
2022-09-21T11:39:05.856Z,72.67
2022-09-21T11:40:05.904Z,72.83
2022-09-21T11:41:05.818Z,71.87
2022-09-21T11:42:05.807Z,73.15
2022-09-21T11:43:05.805Z,71.38
2022-09-21T11:44:07.754Z,73.64
2022-09-21T11:45:05.798Z,71.38
2022-09-21T11:46:05.843Z,72.67
2022-09-21T11:47:05.732Z,69.29
2022-09-21T11:48:05.704Z,72.67
2022-09-21T11:49:05.756Z,71.87
2022-09-21T11:50:29.338Z,72.19
2022-09-21T11:51:07.662Z,72.83
2022-09-21T11:52:05.656Z,72.19
2022-09-21T11:53:05.629Z,71.06
2022-09-21T11:54:05.608Z,71.06
2022-09-21T11:55:05.667Z,70.90
2022-09-21T11:56:05.565Z,72.99
2022-09-21T11:57:05.549Z,72.03
2022-09-21T11:58:05.534Z,71.87
2022-09-21T11:59:05.612Z,72.99
2022-09-21T12:00:05.545Z,71.06
2022-09-21T12:01:05.482Z,72.35
2022-09-21T12:02:05.619Z,71.87
2022-09-21T12:03:05.448Z,72.03
2022-09-21T12:04:05.438Z,72.03
2022-09-21T12:05:05.457Z,71.87
2022-09-21T12:06:05.434Z,72.51
2022-09-21T12:07:05.378Z,73.80
2022-09-21T12:08:05.366Z,70.74
2022-09-21T12:09:05.332Z,71.38
2022-09-21T12:10:08.931Z,71.87
2022-09-21T12:11:05.333Z,72.51
2022-09-21T12:12:05.292Z,71.54
2022-09-21T12:13:05.274Z,72.83
2022-09-21T12:14:05.260Z,72.35
2022-09-21T12:15:05.275Z,72.99
2022-09-21T12:16:05.248Z,72.19
2022-09-21T12:17:05.820Z,71.06
2022-09-21T12:18:05.186Z,72.51
2022-09-21T12:19:05.257Z,68.80
2022-09-21T12:20:05.163Z,70.90
2022-09-21T12:21:05.161Z,71.54
2022-09-21T12:22:05.112Z,71.38
2022-09-21T12:23:05.097Z,72.35
2022-09-21T12:24:05.133Z,69.29
2022-09-21T12:25:05.074Z,72.35
2022-09-21T12:26:05.084Z,72.19
2022-09-21T12:27:05.036Z,72.99
2022-09-21T12:28:05.035Z,70.74
2022-09-21T12:29:05.003Z,70.74
2022-09-21T12:30:04.973Z,70.74
2022-09-21T12:31:05.034Z,71.87
2022-09-21T12:32:04.940Z,70.25
2022-09-21T12:33:04.944Z,71.22
2022-09-21T12:34:05.003Z,72.67
2022-09-21T12:35:05.887Z,71.06
2022-09-21T12:36:04.899Z,72.35
2022-09-21T12:37:04.854Z,70.25
2022-09-21T12:38:04.830Z,72.99
2022-09-21T12:39:04.878Z,71.70
2022-09-21T12:40:04.866Z,71.87
2022-09-21T12:41:04.807Z,72.35
2022-09-21T12:42:04.764Z,72.35
2022-09-21T12:43:04.772Z,70.09
2022-09-21T12:44:04.739Z,71.70
2022-09-21T12:45:04.726Z,74.60
2022-09-21T12:46:04.759Z,70.74
2022-09-21T12:47:04.680Z,71.87
2022-09-21T12:48:05.656Z,72.83
2022-09-21T12:49:04.639Z,71.70
2022-09-21T12:50:04.639Z,71.70
2022-09-21T12:51:06.273Z,70.42
2022-09-21T12:52:05.672Z,73.32
2022-09-21T12:53:04.577Z,72.67